sensor_id;sensor_type;location;lat;lon;timestamp;P1;durP1;ratioP1;P2;durP2;ratioP2
4563;SDS011;2294;51.818;8.484;2023-07-29T00:01:30;5.10;;;2.23;;
4563;SDS011;2294;51.818;8.484;2023-07-29T00:03:57;5.53;;;2.20;;
4563;SDS011;2294;51.818;8.484;2023-07-29T00:06:24;5.03;;;2.47;;
4563;SDS011;2294;51.818;8.484;2023-07-29T00:08:52;8.90;;;2.60;;
4563;SDS011;2294;51.818;8.484;2023-07-29T00:11:19;4.33;;;2.00;;
4563;SDS011;2294;51.818;8.484;2023-07-29T00:13:46;4.63;;;2.20;;
4563;SDS011;2294;51.818;8.484;2023-07-29T00:16:15;8.73;;;3.00;;
4563;SDS011;2294;51.818;8.484;2023-07-29T00:18:42;6.13;;;2.77;;
4563;SDS011;2294;51.818;8.484;2023-07-29T00:21:09;9.73;;;2.10;;
4563;SDS011;2294;51.818;8.484;2023-07-29T00:23:36;6.30;;;2.67;;
4563;SDS011;2294;51.818;8.484;2023-07-29T00:26:04;5.10;;;2.60;;
4563;SDS011;2294;51.818;8.484;2023-07-29T00:28:31;8.17;;;2.60;;
4563;SDS011;2294;51.818;8.484;2023-07-29T00:30:58;5.70;;;2.23;;
4563;SDS011;2294;51.818;8.484;2023-07-29T00:33:25;4.97;;;2.50;;
4563;SDS011;2294;51.818;8.484;2023-07-29T00:35:52;7.63;;;2.30;;
4563;SDS011;2294;51.818;8.484;2023-07-29T00:38:19;4.63;;;2.40;;
4563;SDS011;2294;51.818;8.484;2023-07-29T00:40:46;8.43;;;2.80;;
4563;SDS011;2294;51.818;8.484;2023-07-29T00:43:14;8.93;;;2.47;;
4563;SDS011;2294;51.818;8.484;2023-07-29T00:45:41;7.20;;;2.80;;
4563;SDS011;2294;51.818;8.484;2023-07-29T00:48:10;7.30;;;2.50;;
4563;SDS011;2294;51.818;8.484;2023-07-29T00:50:37;7.73;;;3.00;;
4563;SDS011;2294;51.818;8.484;2023-07-29T00:53:04;10.00;;;2.67;;
4563;SDS011;2294;51.818;8.484;2023-07-29T00:55:31;7.63;;;3.13;;
4563;SDS011;2294;51.818;8.484;2023-07-29T00:57:59;4.70;;;2.20;;
4563;SDS011;2294;51.818;8.484;2023-07-29T01:00:27;5.40;;;2.87;;
4563;SDS011;2294;51.818;8.484;2023-07-29T01:02:54;6.87;;;3.10;;
4563;SDS011;2294;51.818;8.484;2023-07-29T01:05:21;5.57;;;2.93;;
4563;SDS011;2294;51.818;8.484;2023-07-29T01:07:53;18.10;;;2.87;;
4563;SDS011;2294;51.818;8.484;2023-07-29T01:10:29;5.20;;;2.63;;
4563;SDS011;2294;51.818;8.484;2023-07-29T01:13:02;5.70;;;3.07;;
4563;SDS011;2294;51.818;8.484;2023-07-29T01:15:39;5.40;;;2.90;;
4563;SDS011;2294;51.818;8.484;2023-07-29T01:18:14;5.23;;;2.63;;
4563;SDS011;2294;51.818;8.484;2023-07-29T01:20:45;7.87;;;2.77;;
4563;SDS011;2294;51.818;8.484;2023-07-29T01:23:13;6.33;;;2.60;;
4563;SDS011;2294;51.818;8.484;2023-07-29T01:25:43;5.43;;;2.57;;
4563;SDS011;2294;51.818;8.484;2023-07-29T01:28:10;7.00;;;3.00;;
4563;SDS011;2294;51.818;8.484;2023-07-29T01:30:38;8.17;;;3.17;;
4563;SDS011;2294;51.818;8.484;2023-07-29T01:33:08;4.63;;;2.33;;
4563;SDS011;2294;51.818;8.484;2023-07-29T01:35:41;5.83;;;3.07;;
4563;SDS011;2294;51.818;8.484;2023-07-29T01:38:13;5.77;;;3.20;;
4563;SDS011;2294;51.818;8.484;2023-07-29T01:40:45;9.23;;;3.20;;
4563;SDS011;2294;51.818;8.484;2023-07-29T01:43:12;7.50;;;3.67;;
4563;SDS011;2294;51.818;8.484;2023-07-29T01:45:39;6.33;;;3.47;;
4563;SDS011;2294;51.818;8.484;2023-07-29T01:48:07;8.20;;;3.50;;
4563;SDS011;2294;51.818;8.484;2023-07-29T01:50:34;5.50;;;2.97;;
4563;SDS011;2294;51.818;8.484;2023-07-29T01:53:01;11.10;;;3.50;;
4563;SDS011;2294;51.818;8.484;2023-07-29T01:55:28;6.50;;;3.00;;
4563;SDS011;2294;51.818;8.484;2023-07-29T01:57:56;6.50;;;3.20;;
4563;SDS011;2294;51.818;8.484;2023-07-29T02:00:23;5.73;;;2.83;;
4563;SDS011;2294;51.818;8.484;2023-07-29T02:02:50;6.33;;;2.70;;
4563;SDS011;2294;51.818;8.484;2023-07-29T02:05:17;5.10;;;2.80;;
4563;SDS011;2294;51.818;8.484;2023-07-29T02:07:44;6.03;;;3.27;;
4563;SDS011;2294;51.818;8.484;2023-07-29T02:10:11;11.73;;;3.20;;
4563;SDS011;2294;51.818;8.484;2023-07-29T02:12:38;5.53;;;3.13;;
4563;SDS011;2294;51.818;8.484;2023-07-29T02:15:07;7.20;;;3.77;;
4563;SDS011;2294;51.818;8.484;2023-07-29T02:17:34;5.07;;;2.60;;
4563;SDS011;2294;51.818;8.484;2023-07-29T02:20:02;6.30;;;3.20;;
4563;SDS011;2294;51.818;8.484;2023-07-29T02:22:29;6.53;;;3.17;;
4563;SDS011;2294;51.818;8.484;2023-07-29T02:24:56;5.70;;;3.00;;
4563;SDS011;2294;51.818;8.484;2023-07-29T02:27:23;8.90;;;3.20;;
4563;SDS011;2294;51.818;8.484;2023-07-29T02:29:52;6.10;;;3.20;;
4563;SDS011;2294;51.818;8.484;2023-07-29T02:32:20;5.80;;;2.97;;
4563;SDS011;2294;51.818;8.484;2023-07-29T02:34:48;6.97;;;2.70;;
4563;SDS011;2294;51.818;8.484;2023-07-29T02:37:15;6.40;;;3.47;;
4563;SDS011;2294;51.818;8.484;2023-07-29T02:39:42;6.33;;;4.00;;
4563;SDS011;2294;51.818;8.484;2023-07-29T02:42:09;6.40;;;3.43;;
4563;SDS011;2294;51.818;8.484;2023-07-29T02:44:35;6.90;;;4.00;;
4563;SDS011;2294;51.818;8.484;2023-07-29T02:47:03;5.60;;;2.73;;
4563;SDS011;2294;51.818;8.484;2023-07-29T02:49:31;9.37;;;3.17;;
4563;SDS011;2294;51.818;8.484;2023-07-29T02:51:58;12.20;;;3.20;;
4563;SDS011;2294;51.818;8.484;2023-07-29T02:54:25;8.30;;;3.00;;
4563;SDS011;2294;51.818;8.484;2023-07-29T02:56:51;6.07;;;2.97;;
4563;SDS011;2294;51.818;8.484;2023-07-29T02:59:19;6.50;;;4.00;;
4563;SDS011;2294;51.818;8.484;2023-07-29T03:01:46;10.80;;;3.30;;
4563;SDS011;2294;51.818;8.484;2023-07-29T03:04:13;5.30;;;3.00;;
4563;SDS011;2294;51.818;8.484;2023-07-29T03:06:41;6.20;;;3.10;;
4563;SDS011;2294;51.818;8.484;2023-07-29T03:09:08;12.37;;;3.03;;
4563;SDS011;2294;51.818;8.484;2023-07-29T03:11:35;6.50;;;3.10;;
4563;SDS011;2294;51.818;8.484;2023-07-29T03:14:02;6.43;;;2.90;;
4563;SDS011;2294;51.818;8.484;2023-07-29T03:16:28;7.33;;;3.73;;
4563;SDS011;2294;51.818;8.484;2023-07-29T03:18:55;6.97;;;3.30;;
4563;SDS011;2294;51.818;8.484;2023-07-29T03:21:22;8.03;;;3.50;;
4563;SDS011;2294;51.818;8.484;2023-07-29T03:23:51;9.27;;;3.20;;
4563;SDS011;2294;51.818;8.484;2023-07-29T03:26:18;8.57;;;3.77;;
4563;SDS011;2294;51.818;8.484;2023-07-29T03:28:45;8.20;;;3.10;;
4563;SDS011;2294;51.818;8.484;2023-07-29T03:31:12;10.60;;;2.90;;
4563;SDS011;2294;51.818;8.484;2023-07-29T03:33:38;7.80;;;3.07;;
4563;SDS011;2294;51.818;8.484;2023-07-29T03:36:05;9.77;;;3.20;;
4563;SDS011;2294;51.818;8.484;2023-07-29T03:38:32;9.73;;;2.83;;
4563;SDS011;2294;51.818;8.484;2023-07-29T03:41:01;5.90;;;3.23;;
4563;SDS011;2294;51.818;8.484;2023-07-29T03:43:28;7.23;;;2.87;;
4563;SDS011;2294;51.818;8.484;2023-07-29T03:45:55;8.00;;;3.43;;
4563;SDS011;2294;51.818;8.484;2023-07-29T03:48:22;7.00;;;3.17;;
4563;SDS011;2294;51.818;8.484;2023-07-29T03:50:49;6.27;;;3.53;;
4563;SDS011;2294;51.818;8.484;2023-07-29T03:53:16;8.20;;;3.80;;
4563;SDS011;2294;51.818;8.484;2023-07-29T03:55:43;7.50;;;3.60;;
4563;SDS011;2294;51.818;8.484;2023-07-29T03:58:11;7.90;;;3.30;;
4563;SDS011;2294;51.818;8.484;2023-07-29T04:00:38;5.30;;;3.03;;
4563;SDS011;2294;51.818;8.484;2023-07-29T04:03:05;10.03;;;3.53;;
4563;SDS011;2294;51.818;8.484;2023-07-29T04:05:32;6.30;;;3.50;;
4563;SDS011;2294;51.818;8.484;2023-07-29T04:07:59;9.83;;;3.27;;
4563;SDS011;2294;51.818;8.484;2023-07-29T04:10:26;6.37;;;3.60;;
4563;SDS011;2294;51.818;8.484;2023-07-29T04:12:53;5.87;;;3.30;;
4563;SDS011;2294;51.818;8.484;2023-07-29T04:15:21;5.70;;;3.17;;
4563;SDS011;2294;51.818;8.484;2023-07-29T04:17:48;6.80;;;3.43;;
4563;SDS011;2294;51.818;8.484;2023-07-29T04:20:15;6.13;;;3.23;;
4563;SDS011;2294;51.818;8.484;2023-07-29T04:22:42;6.47;;;3.20;;
4563;SDS011;2294;51.818;8.484;2023-07-29T04:25:08;9.97;;;3.70;;
4563;SDS011;2294;51.818;8.484;2023-07-29T04:27:35;6.90;;;3.53;;
4563;SDS011;2294;51.818;8.484;2023-07-29T04:30:02;6.80;;;3.80;;
4563;SDS011;2294;51.818;8.484;2023-07-29T04:32:31;5.93;;;3.50;;
4563;SDS011;2294;51.818;8.484;2023-07-29T04:34:58;8.60;;;3.63;;
4563;SDS011;2294;51.818;8.484;2023-07-29T04:37:25;9.73;;;3.67;;
4563;SDS011;2294;51.818;8.484;2023-07-29T04:39:52;9.57;;;4.07;;
4563;SDS011;2294;51.818;8.484;2023-07-29T04:42:19;10.43;;;3.80;;
4563;SDS011;2294;51.818;8.484;2023-07-29T04:44:45;7.60;;;3.73;;
4563;SDS011;2294;51.818;8.484;2023-07-29T04:47:12;6.87;;;3.20;;
4563;SDS011;2294;51.818;8.484;2023-07-29T04:49:41;6.20;;;3.27;;
4563;SDS011;2294;51.818;8.484;2023-07-29T04:52:08;6.40;;;3.90;;
4563;SDS011;2294;51.818;8.484;2023-07-29T04:54:35;8.77;;;4.07;;
4563;SDS011;2294;51.818;8.484;2023-07-29T04:57:02;13.43;;;3.53;;
4563;SDS011;2294;51.818;8.484;2023-07-29T04:59:29;7.30;;;4.10;;
4563;SDS011;2294;51.818;8.484;2023-07-29T05:01:55;8.30;;;3.53;;
4563;SDS011;2294;51.818;8.484;2023-07-29T05:04:23;7.80;;;4.07;;
4563;SDS011;2294;51.818;8.484;2023-07-29T05:06:51;8.00;;;4.10;;
4563;SDS011;2294;51.818;8.484;2023-07-29T05:09:18;8.17;;;3.80;;
4563;SDS011;2294;51.818;8.484;2023-07-29T05:11:46;8.00;;;3.17;;
4563;SDS011;2294;51.818;8.484;2023-07-29T05:14:14;7.27;;;3.47;;
4563;SDS011;2294;51.818;8.484;2023-07-29T05:16:43;8.10;;;3.73;;
4563;SDS011;2294;51.818;8.484;2023-07-29T05:19:10;6.30;;;3.60;;
4563;SDS011;2294;51.818;8.484;2023-07-29T05:21:37;7.40;;;3.40;;
4563;SDS011;2294;51.818;8.484;2023-07-29T05:24:06;6.17;;;3.60;;
4563;SDS011;2294;51.818;8.484;2023-07-29T05:26:33;6.83;;;3.20;;
4563;SDS011;2294;51.818;8.484;2023-07-29T05:28:59;6.40;;;3.43;;
4563;SDS011;2294;51.818;8.484;2023-07-29T05:31:26;8.90;;;4.13;;
4563;SDS011;2294;51.818;8.484;2023-07-29T05:33:54;7.40;;;3.50;;
4563;SDS011;2294;51.818;8.484;2023-07-29T05:36:20;7.13;;;3.70;;
4563;SDS011;2294;51.818;8.484;2023-07-29T05:38:47;8.03;;;3.60;;
4563;SDS011;2294;51.818;8.484;2023-07-29T05:41:15;6.80;;;3.43;;
4563;SDS011;2294;51.818;8.484;2023-07-29T05:43:42;6.83;;;3.20;;
4563;SDS011;2294;51.818;8.484;2023-07-29T05:46:10;10.13;;;3.70;;
4563;SDS011;2294;51.818;8.484;2023-07-29T05:48:37;6.57;;;3.07;;
4563;SDS011;2294;51.818;8.484;2023-07-29T05:51:04;10.90;;;3.83;;
4563;SDS011;2294;51.818;8.484;2023-07-29T05:53:31;5.33;;;2.90;;
4563;SDS011;2294;51.818;8.484;2023-07-29T05:55:58;6.60;;;3.07;;
4563;SDS011;2294;51.818;8.484;2023-07-29T05:58:26;5.43;;;3.00;;
4563;SDS011;2294;51.818;8.484;2023-07-29T06:00:53;5.87;;;3.20;;
4563;SDS011;2294;51.818;8.484;2023-07-29T06:03:20;6.70;;;2.90;;
4563;SDS011;2294;51.818;8.484;2023-07-29T06:05:48;4.87;;;2.47;;
4563;SDS011;2294;51.818;8.484;2023-07-29T06:08:15;4.93;;;2.60;;
4563;SDS011;2294;51.818;8.484;2023-07-29T06:10:42;6.87;;;2.97;;
4563;SDS011;2294;51.818;8.484;2023-07-29T06:13:09;5.03;;;2.87;;
4563;SDS011;2294;51.818;8.484;2023-07-29T06:15:37;5.33;;;2.87;;
4563;SDS011;2294;51.818;8.484;2023-07-29T06:18:04;5.60;;;2.80;;
4563;SDS011;2294;51.818;8.484;2023-07-29T06:20:30;8.80;;;3.07;;
4563;SDS011;2294;51.818;8.484;2023-07-29T06:22:57;5.57;;;2.50;;
4563;SDS011;2294;51.818;8.484;2023-07-29T06:25:24;5.83;;;2.37;;
4563;SDS011;2294;51.818;8.484;2023-07-29T06:27:51;10.60;;;3.20;;
4563;SDS011;2294;51.818;8.484;2023-07-29T06:30:18;7.90;;;2.80;;
4563;SDS011;2294;51.818;8.484;2023-07-29T06:32:46;8.57;;;2.60;;
4563;SDS011;2294;51.818;8.484;2023-07-29T06:35:13;6.97;;;2.93;;
4563;SDS011;2294;51.818;8.484;2023-07-29T06:37:40;8.50;;;2.97;;
4563;SDS011;2294;51.818;8.484;2023-07-29T06:40:07;8.70;;;2.67;;
4563;SDS011;2294;51.818;8.484;2023-07-29T06:42:34;5.67;;;2.97;;
4563;SDS011;2294;51.818;8.484;2023-07-29T06:45:02;7.83;;;3.03;;
4563;SDS011;2294;51.818;8.484;2023-07-29T06:47:30;8.90;;;2.90;;
4563;SDS011;2294;51.818;8.484;2023-07-29T06:49:58;8.50;;;3.00;;
4563;SDS011;2294;51.818;8.484;2023-07-29T06:52:26;6.97;;;3.37;;
4563;SDS011;2294;51.818;8.484;2023-07-29T06:54:52;7.97;;;3.03;;
4563;SDS011;2294;51.818;8.484;2023-07-29T06:57:19;6.93;;;2.80;;
4563;SDS011;2294;51.818;8.484;2023-07-29T06:59:46;18.57;;;3.40;;
4563;SDS011;2294;51.818;8.484;2023-07-29T07:02:13;9.53;;;2.90;;
4563;SDS011;2294;51.818;8.484;2023-07-29T07:04:40;8.20;;;3.93;;
4563;SDS011;2294;51.818;8.484;2023-07-29T07:07:08;8.00;;;4.67;;
4563;SDS011;2294;51.818;8.484;2023-07-29T07:09:35;8.13;;;4.80;;
4563;SDS011;2294;51.818;8.484;2023-07-29T07:12:02;12.63;;;5.57;;
4563;SDS011;2294;51.818;8.484;2023-07-29T07:14:30;12.47;;;8.53;;
4563;SDS011;2294;51.818;8.484;2023-07-29T07:16:57;15.83;;;9.90;;
4563;SDS011;2294;51.818;8.484;2023-07-29T07:19:23;15.00;;;8.57;;
4563;SDS011;2294;51.818;8.484;2023-07-29T07:21:50;16.10;;;9.77;;
4563;SDS011;2294;51.818;8.484;2023-07-29T07:24:18;17.87;;;10.70;;
4563;SDS011;2294;51.818;8.484;2023-07-29T07:26:46;17.27;;;10.80;;
4563;SDS011;2294;51.818;8.484;2023-07-29T07:29:13;15.27;;;9.60;;
4563;SDS011;2294;51.818;8.484;2023-07-29T07:31:41;14.23;;;9.33;;
4563;SDS011;2294;51.818;8.484;2023-07-29T07:34:16;17.60;;;10.27;;
4563;SDS011;2294;51.818;8.484;2023-07-29T07:36:43;16.67;;;10.43;;
4563;SDS011;2294;51.818;8.484;2023-07-29T07:39:10;16.87;;;9.87;;
4563;SDS011;2294;51.818;8.484;2023-07-29T07:41:40;13.93;;;9.07;;
4563;SDS011;2294;51.818;8.484;2023-07-29T07:44:07;16.97;;;10.13;;
4563;SDS011;2294;51.818;8.484;2023-07-29T07:46:36;14.87;;;9.13;;
4563;SDS011;2294;51.818;8.484;2023-07-29T07:49:03;14.10;;;8.53;;
4563;SDS011;2294;51.818;8.484;2023-07-29T07:51:31;16.37;;;9.40;;
4563;SDS011;2294;51.818;8.484;2023-07-29T07:53:59;13.57;;;7.43;;
4563;SDS011;2294;51.818;8.484;2023-07-29T07:56:26;9.93;;;6.13;;
4563;SDS011;2294;51.818;8.484;2023-07-29T07:58:54;10.43;;;6.20;;
4563;SDS011;2294;51.818;8.484;2023-07-29T08:01:22;10.37;;;5.60;;
4563;SDS011;2294;51.818;8.484;2023-07-29T08:03:49;9.70;;;6.00;;
4563;SDS011;2294;51.818;8.484;2023-07-29T08:06:16;8.50;;;6.20;;
4563;SDS011;2294;51.818;8.484;2023-07-29T08:08:43;9.10;;;6.23;;
4563;SDS011;2294;51.818;8.484;2023-07-29T08:11:10;8.60;;;6.47;;
4563;SDS011;2294;51.818;8.484;2023-07-29T08:13:37;9.67;;;6.10;;
4563;SDS011;2294;51.818;8.484;2023-07-29T08:16:06;8.13;;;6.23;;
4563;SDS011;2294;51.818;8.484;2023-07-29T08:18:33;10.30;;;7.53;;
4563;SDS011;2294;51.818;8.484;2023-07-29T08:21:01;13.37;;;7.03;;
4563;SDS011;2294;51.818;8.484;2023-07-29T08:23:29;10.10;;;7.20;;
4563;SDS011;2294;51.818;8.484;2023-07-29T08:25:57;13.93;;;7.63;;
4563;SDS011;2294;51.818;8.484;2023-07-29T08:28:27;13.47;;;7.37;;
4563;SDS011;2294;51.818;8.484;2023-07-29T08:30:54;8.73;;;6.30;;
4563;SDS011;2294;51.818;8.484;2023-07-29T08:33:22;9.70;;;7.60;;
4563;SDS011;2294;51.818;8.484;2023-07-29T08:35:50;11.23;;;7.80;;
4563;SDS011;2294;51.818;8.484;2023-07-29T08:38:17;10.07;;;6.93;;
4563;SDS011;2294;51.818;8.484;2023-07-29T08:40:45;12.30;;;7.10;;
4563;SDS011;2294;51.818;8.484;2023-07-29T08:43:12;8.53;;;5.97;;
4563;SDS011;2294;51.818;8.484;2023-07-29T08:45:41;7.70;;;4.70;;
4563;SDS011;2294;51.818;8.484;2023-07-29T08:48:09;6.33;;;3.33;;
4563;SDS011;2294;51.818;8.484;2023-07-29T08:50:38;5.67;;;2.83;;
4563;SDS011;2294;51.818;8.484;2023-07-29T08:53:06;5.77;;;3.20;;
4563;SDS011;2294;51.818;8.484;2023-07-29T08:55:33;5.80;;;2.60;;
4563;SDS011;2294;51.818;8.484;2023-07-29T08:58:01;6.17;;;3.30;;
4563;SDS011;2294;51.818;8.484;2023-07-29T09:00:29;6.57;;;2.90;;
4563;SDS011;2294;51.818;8.484;2023-07-29T09:02:57;8.57;;;2.70;;
4563;SDS011;2294;51.818;8.484;2023-07-29T09:05:29;4.73;;;2.30;;
4563;SDS011;2294;51.818;8.484;2023-07-29T09:07:58;5.93;;;2.90;;
4563;SDS011;2294;51.818;8.484;2023-07-29T09:10:25;6.10;;;2.60;;
4563;SDS011;2294;51.818;8.484;2023-07-29T09:12:52;7.60;;;3.13;;
4563;SDS011;2294;51.818;8.484;2023-07-29T09:15:29;4.00;;;1.40;;
4563;SDS011;2294;51.818;8.484;2023-07-29T09:17:57;5.90;;;1.77;;
4563;SDS011;2294;51.818;8.484;2023-07-29T09:20:24;3.50;;;1.37;;
4563;SDS011;2294;51.818;8.484;2023-07-29T09:22:52;3.50;;;1.33;;
4563;SDS011;2294;51.818;8.484;2023-07-29T09:25:23;4.50;;;1.53;;
4563;SDS011;2294;51.818;8.484;2023-07-29T09:27:51;3.80;;;1.10;;
4563;SDS011;2294;51.818;8.484;2023-07-29T09:30:18;5.83;;;1.30;;
4563;SDS011;2294;51.818;8.484;2023-07-29T09:32:45;5.47;;;1.67;;
4563;SDS011;2294;51.818;8.484;2023-07-29T09:35:12;3.80;;;1.40;;
4563;SDS011;2294;51.818;8.484;2023-07-29T09:37:40;3.40;;;1.17;;
4563;SDS011;2294;51.818;8.484;2023-07-29T09:40:07;6.50;;;1.20;;
4563;SDS011;2294;51.818;8.484;2023-07-29T09:42:41;4.47;;;1.10;;
4563;SDS011;2294;51.818;8.484;2023-07-29T09:45:18;3.40;;;1.10;;
4563;SDS011;2294;51.818;8.484;2023-07-29T09:47:46;3.40;;;1.00;;
4563;SDS011;2294;51.818;8.484;2023-07-29T09:50:13;3.50;;;1.03;;
4563;SDS011;2294;51.818;8.484;2023-07-29T09:52:40;3.77;;;1.37;;
4563;SDS011;2294;51.818;8.484;2023-07-29T09:55:09;5.87;;;1.30;;
4563;SDS011;2294;51.818;8.484;2023-07-29T09:57:36;3.93;;;1.40;;
4563;SDS011;2294;51.818;8.484;2023-07-29T10:00:07;4.00;;;1.30;;
4563;SDS011;2294;51.818;8.484;2023-07-29T10:02:36;3.57;;;1.40;;
4563;SDS011;2294;51.818;8.484;2023-07-29T10:05:04;4.70;;;1.17;;
4563;SDS011;2294;51.818;8.484;2023-07-29T10:07:32;3.97;;;1.20;;
4563;SDS011;2294;51.818;8.484;2023-07-29T10:10:01;3.83;;;1.40;;
4563;SDS011;2294;51.818;8.484;2023-07-29T10:12:30;6.40;;;1.37;;
4563;SDS011;2294;51.818;8.484;2023-07-29T10:14:58;4.50;;;1.70;;
4563;SDS011;2294;51.818;8.484;2023-07-29T10:17:27;5.73;;;1.67;;
4563;SDS011;2294;51.818;8.484;2023-07-29T10:19:55;6.97;;;1.40;;
4563;SDS011;2294;51.818;8.484;2023-07-29T10:22:24;6.07;;;1.63;;
4563;SDS011;2294;51.818;8.484;2023-07-29T10:24:52;7.03;;;1.90;;
4563;SDS011;2294;51.818;8.484;2023-07-29T10:27:21;6.33;;;1.97;;
4563;SDS011;2294;51.818;8.484;2023-07-29T10:29:50;4.03;;;1.30;;
4563;SDS011;2294;51.818;8.484;2023-07-29T10:32:19;4.87;;;1.40;;
4563;SDS011;2294;51.818;8.484;2023-07-29T10:34:51;5.17;;;1.73;;
4563;SDS011;2294;51.818;8.484;2023-07-29T10:37:18;3.67;;;1.47;;
4563;SDS011;2294;51.818;8.484;2023-07-29T10:39:51;3.60;;;1.30;;
4563;SDS011;2294;51.818;8.484;2023-07-29T10:42:19;4.27;;;1.30;;
4563;SDS011;2294;51.818;8.484;2023-07-29T10:44:46;3.73;;;1.40;;
4563;SDS011;2294;51.818;8.484;2023-07-29T10:47:15;3.73;;;1.30;;
4563;SDS011;2294;51.818;8.484;2023-07-29T10:49:43;4.07;;;1.43;;
4563;SDS011;2294;51.818;8.484;2023-07-29T10:52:14;4.40;;;1.60;;
4563;SDS011;2294;51.818;8.484;2023-07-29T10:54:42;4.47;;;1.33;;
4563;SDS011;2294;51.818;8.484;2023-07-29T10:57:12;4.03;;;1.50;;
4563;SDS011;2294;51.818;8.484;2023-07-29T10:59:40;4.37;;;1.30;;
4563;SDS011;2294;51.818;8.484;2023-07-29T11:02:15;3.40;;;1.10;;
4563;SDS011;2294;51.818;8.484;2023-07-29T11:04:47;3.87;;;1.53;;
4563;SDS011;2294;51.818;8.484;2023-07-29T11:07:22;5.30;;;1.50;;
4563;SDS011;2294;51.818;8.484;2023-07-29T11:10:00;4.10;;;1.60;;
4563;SDS011;2294;51.818;8.484;2023-07-29T11:12:38;3.53;;;1.20;;
4563;SDS011;2294;51.818;8.484;2023-07-29T11:15:11;3.83;;;1.40;;
4563;SDS011;2294;51.818;8.484;2023-07-29T11:17:40;3.47;;;1.20;;
4563;SDS011;2294;51.818;8.484;2023-07-29T11:20:08;7.77;;;1.40;;
4563;SDS011;2294;51.818;8.484;2023-07-29T11:22:37;3.30;;;1.10;;
4563;SDS011;2294;51.818;8.484;2023-07-29T11:25:04;4.60;;;1.10;;
4563;SDS011;2294;51.818;8.484;2023-07-29T11:27:32;6.53;;;1.40;;
4563;SDS011;2294;51.818;8.484;2023-07-29T11:29:59;4.20;;;1.30;;
4563;SDS011;2294;51.818;8.484;2023-07-29T11:32:27;3.40;;;1.23;;
4563;SDS011;2294;51.818;8.484;2023-07-29T11:34:54;4.60;;;1.43;;
4563;SDS011;2294;51.818;8.484;2023-07-29T11:37:22;5.40;;;1.37;;
4563;SDS011;2294;51.818;8.484;2023-07-29T11:39:50;4.50;;;1.60;;
4563;SDS011;2294;51.818;8.484;2023-07-29T11:42:18;4.57;;;1.80;;
4563;SDS011;2294;51.818;8.484;2023-07-29T11:44:45;4.13;;;1.80;;
4563;SDS011;2294;51.818;8.484;2023-07-29T11:47:12;4.47;;;1.70;;
4563;SDS011;2294;51.818;8.484;2023-07-29T11:49:40;6.33;;;1.50;;
4563;SDS011;2294;51.818;8.484;2023-07-29T11:52:07;3.67;;;1.43;;
4563;SDS011;2294;51.818;8.484;2023-07-29T11:54:35;5.40;;;1.40;;
4563;SDS011;2294;51.818;8.484;2023-07-29T11:57:05;3.50;;;1.20;;
4563;SDS011;2294;51.818;8.484;2023-07-29T11:59:33;3.77;;;1.53;;
4563;SDS011;2294;51.818;8.484;2023-07-29T12:02:00;3.40;;;1.33;;
4563;SDS011;2294;51.818;8.484;2023-07-29T12:04:28;5.93;;;2.40;;
4563;SDS011;2294;51.818;8.484;2023-07-29T12:06:56;3.83;;;1.30;;
4563;SDS011;2294;51.818;8.484;2023-07-29T12:09:23;4.37;;;1.77;;
4563;SDS011;2294;51.818;8.484;2023-07-29T12:11:52;5.10;;;1.90;;
4563;SDS011;2294;51.818;8.484;2023-07-29T12:14:20;6.10;;;1.83;;
4563;SDS011;2294;51.818;8.484;2023-07-29T12:16:47;4.33;;;1.83;;
4563;SDS011;2294;51.818;8.484;2023-07-29T12:19:17;5.77;;;2.27;;
4563;SDS011;2294;51.818;8.484;2023-07-29T12:21:44;5.73;;;1.87;;
4563;SDS011;2294;51.818;8.484;2023-07-29T12:24:11;5.00;;;2.03;;
4563;SDS011;2294;51.818;8.484;2023-07-29T12:26:38;4.77;;;2.63;;
4563;SDS011;2294;51.818;8.484;2023-07-29T12:29:12;5.30;;;2.10;;
4563;SDS011;2294;51.818;8.484;2023-07-29T12:31:40;4.53;;;1.90;;
4563;SDS011;2294;51.818;8.484;2023-07-29T12:34:07;4.93;;;2.03;;
4563;SDS011;2294;51.818;8.484;2023-07-29T12:36:41;4.90;;;2.00;;
4563;SDS011;2294;51.818;8.484;2023-07-29T12:39:16;4.60;;;2.07;;
4563;SDS011;2294;51.818;8.484;2023-07-29T12:41:44;4.30;;;1.97;;
4563;SDS011;2294;51.818;8.484;2023-07-29T12:44:11;6.60;;;2.37;;
4563;SDS011;2294;51.818;8.484;2023-07-29T12:46:38;6.33;;;2.43;;
4563;SDS011;2294;51.818;8.484;2023-07-29T12:49:06;6.10;;;2.17;;
4563;SDS011;2294;51.818;8.484;2023-07-29T12:51:33;5.13;;;2.33;;
4563;SDS011;2294;51.818;8.484;2023-07-29T12:54:01;4.20;;;1.77;;
4563;SDS011;2294;51.818;8.484;2023-07-29T12:56:28;5.40;;;2.17;;
4563;SDS011;2294;51.818;8.484;2023-07-29T12:58:55;5.20;;;2.63;;
4563;SDS011;2294;51.818;8.484;2023-07-29T13:01:22;5.87;;;1.80;;
4563;SDS011;2294;51.818;8.484;2023-07-29T13:03:49;7.50;;;1.93;;
4563;SDS011;2294;51.818;8.484;2023-07-29T13:06:18;5.97;;;1.83;;
4563;SDS011;2294;51.818;8.484;2023-07-29T13:08:45;4.50;;;1.93;;
4563;SDS011;2294;51.818;8.484;2023-07-29T13:11:13;5.37;;;2.20;;
4563;SDS011;2294;51.818;8.484;2023-07-29T13:13:40;5.40;;;2.20;;
4563;SDS011;2294;51.818;8.484;2023-07-29T13:16:07;4.87;;;1.60;;
4563;SDS011;2294;51.818;8.484;2023-07-29T13:18:34;4.73;;;1.87;;
4563;SDS011;2294;51.818;8.484;2023-07-29T13:21:01;4.57;;;1.60;;
4563;SDS011;2294;51.818;8.484;2023-07-29T13:23:29;4.90;;;1.93;;
4563;SDS011;2294;51.818;8.484;2023-07-29T13:25:56;4.47;;;2.03;;
4563;SDS011;2294;51.818;8.484;2023-07-29T13:28:23;4.33;;;2.10;;
4563;SDS011;2294;51.818;8.484;2023-07-29T13:30:50;4.20;;;1.73;;
4563;SDS011;2294;51.818;8.484;2023-07-29T13:33:17;5.70;;;1.77;;
4563;SDS011;2294;51.818;8.484;2023-07-29T13:35:44;5.10;;;1.63;;
4563;SDS011;2294;51.818;8.484;2023-07-29T13:38:11;6.80;;;2.23;;
4563;SDS011;2294;51.818;8.484;2023-07-29T13:40:39;6.17;;;1.97;;
4563;SDS011;2294;51.818;8.484;2023-07-29T13:43:06;5.00;;;2.03;;
4563;SDS011;2294;51.818;8.484;2023-07-29T13:45:33;6.17;;;2.17;;
4563;SDS011;2294;51.818;8.484;2023-07-29T13:48:00;5.80;;;2.43;;
4563;SDS011;2294;51.818;8.484;2023-07-29T13:50:27;6.40;;;2.50;;
4563;SDS011;2294;51.818;8.484;2023-07-29T13:52:54;8.90;;;2.30;;
4563;SDS011;2294;51.818;8.484;2023-07-29T13:55:21;8.27;;;2.37;;
4563;SDS011;2294;51.818;8.484;2023-07-29T13:57:49;9.57;;;3.10;;
4563;SDS011;2294;51.818;8.484;2023-07-29T14:00:16;6.87;;;2.97;;
4563;SDS011;2294;51.818;8.484;2023-07-29T14:02:43;6.67;;;2.73;;
4563;SDS011;2294;51.818;8.484;2023-07-29T14:05:10;7.63;;;3.00;;
4563;SDS011;2294;51.818;8.484;2023-07-29T14:07:37;8.10;;;2.67;;
4563;SDS011;2294;51.818;8.484;2023-07-29T14:10:04;7.50;;;3.23;;
4563;SDS011;2294;51.818;8.484;2023-07-29T14:12:33;6.83;;;3.17;;
4563;SDS011;2294;51.818;8.484;2023-07-29T14:15:02;5.00;;;2.53;;
4563;SDS011;2294;51.818;8.484;2023-07-29T14:17:30;5.40;;;2.53;;
4563;SDS011;2294;51.818;8.484;2023-07-29T14:19:57;7.73;;;2.60;;
4563;SDS011;2294;51.818;8.484;2023-07-29T14:22:24;5.60;;;2.43;;
4563;SDS011;2294;51.818;8.484;2023-07-29T14:24:51;5.93;;;2.60;;
4563;SDS011;2294;51.818;8.484;2023-07-29T14:27:18;5.50;;;2.40;;
4563;SDS011;2294;51.818;8.484;2023-07-29T14:29:45;6.33;;;2.97;;
4563;SDS011;2294;51.818;8.484;2023-07-29T14:32:13;7.77;;;2.13;;
4563;SDS011;2294;51.818;8.484;2023-07-29T14:34:40;4.83;;;1.90;;
4563;SDS011;2294;51.818;8.484;2023-07-29T14:37:07;5.50;;;1.97;;
4563;SDS011;2294;51.818;8.484;2023-07-29T14:39:33;4.80;;;2.10;;
4563;SDS011;2294;51.818;8.484;2023-07-29T14:42:00;5.03;;;2.07;;
4563;SDS011;2294;51.818;8.484;2023-07-29T14:44:27;4.60;;;1.63;;
4563;SDS011;2294;51.818;8.484;2023-07-29T14:46:54;6.63;;;1.80;;
4563;SDS011;2294;51.818;8.484;2023-07-29T14:49:22;4.43;;;2.07;;
4563;SDS011;2294;51.818;8.484;2023-07-29T14:51:49;5.13;;;1.53;;
4563;SDS011;2294;51.818;8.484;2023-07-29T14:54:16;5.50;;;1.47;;
4563;SDS011;2294;51.818;8.484;2023-07-29T14:56:43;3.90;;;1.70;;
4563;SDS011;2294;51.818;8.484;2023-07-29T14:59:10;3.90;;;1.60;;
4563;SDS011;2294;51.818;8.484;2023-07-29T15:01:37;3.80;;;1.40;;
4563;SDS011;2294;51.818;8.484;2023-07-29T15:04:04;7.70;;;1.57;;
4563;SDS011;2294;51.818;8.484;2023-07-29T15:06:32;4.50;;;1.60;;
4563;SDS011;2294;51.818;8.484;2023-07-29T15:08:59;3.97;;;1.37;;
4563;SDS011;2294;51.818;8.484;2023-07-29T15:11:26;4.43;;;1.80;;
4563;SDS011;2294;51.818;8.484;2023-07-29T15:20:37;4.20;;;1.70;;
4563;SDS011;2294;51.818;8.484;2023-07-29T15:23:05;4.83;;;1.80;;